< < Back
Terminal Aerodrome Forecast


Current Version              Previous Versions:   1  2  3  4  5  6  7  8  9  

Terminal Aerodrome Forecast

513
FTUS42 KILM 300500
TAFFLO
TAF
KFLO 300520Z 3006/0106 03003KT 5SM BR SCT015 SCT090
      TEMPO 3008/3012 1SM BR BKN004
     FM301400 03006KT P6SM SCT040=

Latest METAR

334
SAUS70 KWBC 301600 RRD
MTRFLO
METAR KFLO 301553Z VRB06KT 10SM FEW023 24/18 A2992 RMK AO2 SLP128
T02440178


USA.gov is the U.S. government's official web portal to all federal, state and local government web resources and services.